createdAt,value
2023-01-17T00:02:28.593Z,96253.60
2023-01-17T00:05:15.880Z,96251.80
2023-01-17T00:08:02.335Z,96254.40
2023-01-17T00:10:30.143Z,96253.00
2023-01-17T00:13:03.598Z,96250.60
2023-01-17T00:15:32.111Z,96260.20
2023-01-17T00:18:00.095Z,96260.40
2023-01-17T00:20:49.809Z,96263.00
2023-01-17T00:23:42.715Z,96256.40
2023-01-17T00:26:18.202Z,96252.00
2023-01-17T00:28:46.965Z,96253.80
2023-01-17T00:31:16.797Z,96250.60
2023-01-17T00:33:44.530Z,96248.00
2023-01-17T00:36:13.203Z,96257.60
2023-01-17T00:38:41.274Z,96259.20
2023-01-17T00:41:13.430Z,96248.80
2023-01-17T00:44:00.454Z,96255.80
2023-01-17T00:46:47.369Z,96261.40
2023-01-17T00:49:34.167Z,96249.00
2023-01-17T00:52:20.733Z,96247.60
2023-01-17T00:55:07.196Z,96247.40
2023-01-17T00:57:55.847Z,96248.40
2023-01-17T01:00:42.553Z,96255.40
2023-01-17T01:03:30.740Z,96253.20
2023-01-17T01:06:17.195Z,96249.20
2023-01-17T01:09:04.149Z,96255.00
2023-01-17T01:11:50.655Z,96247.40
2023-01-17T01:14:37.334Z,96236.40
2023-01-17T01:17:23.663Z,96237.20
2023-01-17T01:20:10.089Z,96235.40
2023-01-17T01:22:56.629Z,96240.00
2023-01-17T01:25:42.929Z,96233.20
2023-01-17T01:28:33.101Z,96237.20
2023-01-17T01:31:22.241Z,96236.40
2023-01-17T01:33:53.848Z,96241.40
2023-01-17T01:36:21.992Z,96236.20
2023-01-17T01:38:50.529Z,96248.00
2023-01-17T01:41:18.365Z,96251.80
2023-01-17T01:43:54.779Z,96254.60
2023-01-17T01:46:49.132Z,96259.60
2023-01-17T01:49:24.823Z,96261.60
2023-01-17T01:51:59.841Z,96257.20
2023-01-17T01:54:44.605Z,96248.40
2023-01-17T01:57:18.759Z,96244.00
2023-01-17T01:59:56.045Z,96244.80
2023-01-17T02:02:23.923Z,96240.20
2023-01-17T02:04:52.620Z,96241.20
2023-01-17T02:07:33.392Z,96248.20
2023-01-17T02:10:03.576Z,96243.80
2023-01-17T02:12:31.707Z,96249.40
2023-01-17T02:15:00.539Z,96248.20
2023-01-17T02:18:29.864Z,96246.60
2023-01-17T02:21:23.686Z,96248.80
2023-01-17T02:24:35.899Z,96259.60
2023-01-17T02:27:08.218Z,96250.80
2023-01-17T02:30:16.455Z,96261.20
2023-01-17T02:32:54.921Z,96250.00
2023-01-17T02:35:47.376Z,96250.60
2023-01-17T02:38:20.824Z,96240.60
2023-01-17T02:41:02.848Z,96242.00
2023-01-17T02:43:32.899Z,96242.80
2023-01-17T02:46:00.747Z,96235.00
2023-01-17T02:48:32.594Z,96237.00
2023-01-17T02:51:36.835Z,96229.60
2023-01-17T02:54:48.195Z,96227.40
2023-01-17T02:57:56.173Z,96220.80
2023-01-17T03:00:50.277Z,96223.00
2023-01-17T03:03:34.997Z,96218.00
2023-01-17T03:06:36.017Z,96229.80
2023-01-17T03:09:05.003Z,96235.40
2023-01-17T03:11:34.627Z,96233.60
2023-01-17T03:14:02.394Z,96231.00
2023-01-17T03:16:33.403Z,96234.80
2023-01-17T03:19:01.442Z,96238.40
2023-01-17T03:21:29.207Z,96229.60
2023-01-17T03:23:56.924Z,96229.60
2023-01-17T03:26:24.686Z,96227.80
2023-01-17T03:28:52.422Z,96218.00
2023-01-17T03:31:20.188Z,96223.80
2023-01-17T03:33:48.376Z,96237.20
2023-01-17T03:36:16.160Z,96244.40
2023-01-17T03:38:43.911Z,96248.60
2023-01-17T03:41:11.703Z,96255.20
2023-01-17T03:43:39.475Z,96260.40
2023-01-17T03:46:22.437Z,96263.60
2023-01-17T03:48:50.777Z,96264.00
2023-01-17T03:51:19.081Z,96261.80
2023-01-17T03:53:47.422Z,96267.00
2023-01-17T03:56:15.122Z,96259.20
2023-01-17T03:58:45.838Z,96263.60
2023-01-17T04:01:13.843Z,96264.00
2023-01-17T04:03:41.901Z,96258.40
2023-01-17T04:06:09.628Z,96264.00
2023-01-17T04:08:37.631Z,96269.80
2023-01-17T04:11:05.403Z,96269.20
2023-01-17T04:13:33.281Z,96266.00
2023-01-17T04:16:00.948Z,96279.00
2023-01-17T04:18:28.811Z,96279.80
2023-01-17T04:20:56.551Z,96286.80
2023-01-17T04:23:24.240Z,96282.80
2023-01-17T04:25:51.944Z,96291.00
2023-01-17T04:28:19.676Z,96297.60
2023-01-17T04:30:47.480Z,96296.00
2023-01-17T04:33:15.262Z,96289.00
2023-01-17T04:35:42.997Z,96287.60
2023-01-17T04:38:10.684Z,96287.80
2023-01-17T04:40:38.369Z,96284.80
2023-01-17T04:43:06.073Z,96292.80
2023-01-17T04:45:33.886Z,96297.20
2023-01-17T04:48:06.030Z,96284.80
2023-01-17T04:50:34.376Z,96287.00
2023-01-17T04:53:02.129Z,96293.20
2023-01-17T04:55:32.139Z,96310.20
2023-01-17T04:57:59.827Z,96316.60
2023-01-17T05:00:27.867Z,96311.60
2023-01-17T05:02:57.749Z,96311.80
2023-01-17T05:05:25.414Z,96304.80
2023-01-17T05:07:55.549Z,96306.60
2023-01-17T05:10:24.305Z,96310.00
2023-01-17T05:12:57.927Z,96309.20
2023-01-17T05:15:26.900Z,96313.20
2023-01-17T05:17:55.529Z,96307.00
2023-01-17T05:20:25.955Z,96309.20
2023-01-17T05:22:56.576Z,96305.60
2023-01-17T05:25:28.867Z,96309.00
2023-01-17T05:27:59.941Z,96312.20
2023-01-17T05:30:30.613Z,96313.80
2023-01-17T05:32:59.071Z,96312.40
2023-01-17T05:35:30.523Z,96308.60
2023-01-17T05:37:58.385Z,96315.20
2023-01-17T05:40:30.857Z,96314.00
2023-01-17T05:43:01.247Z,96299.20
2023-01-17T05:45:31.603Z,96310.00
2023-01-17T05:47:59.489Z,96311.60
2023-01-17T05:50:35.487Z,96312.80
2023-01-17T05:53:11.006Z,96312.80
2023-01-17T05:55:40.222Z,96314.60
2023-01-17T05:58:21.147Z,96317.80
2023-01-17T06:00:49.409Z,96312.80
2023-01-17T06:03:17.259Z,96304.80
2023-01-17T06:05:45.195Z,96306.00
2023-01-17T06:08:13.579Z,96305.20
2023-01-17T06:10:41.725Z,96308.00
2023-01-17T06:13:15.380Z,96311.40
2023-01-17T06:15:43.184Z,96312.40
2023-01-17T06:18:14.851Z,96317.60
2023-01-17T06:20:43.438Z,96307.00
2023-01-17T06:23:14.259Z,96312.60
2023-01-17T06:25:45.743Z,96305.80
2023-01-17T06:28:17.702Z,96314.20
2023-01-17T06:30:46.259Z,96317.00
2023-01-17T06:33:14.882Z,96316.20
2023-01-17T06:35:53.025Z,96316.20
2023-01-17T06:38:21.422Z,96316.60
2023-01-17T06:40:49.222Z,96324.40
2023-01-17T06:43:17.065Z,96326.60
2023-01-17T06:45:44.764Z,96332.00
2023-01-17T06:48:12.460Z,96329.20
2023-01-17T06:50:40.431Z,96334.60
2023-01-17T06:53:08.192Z,96335.60
2023-01-17T06:55:40.392Z,96334.80
2023-01-17T06:58:09.892Z,96332.40
2023-01-17T07:00:42.752Z,96341.80
2023-01-17T07:03:26.437Z,96348.00
2023-01-17T07:05:54.718Z,96344.00
2023-01-17T07:08:22.436Z,96348.40
2023-01-17T07:11:00.055Z,96353.60
2023-01-17T07:13:29.169Z,96354.20
2023-01-17T07:16:01.227Z,96363.00
2023-01-17T07:18:29.499Z,96365.40
2023-01-17T07:20:57.191Z,96368.60
2023-01-17T07:23:25.188Z,96365.20
2023-01-17T07:26:02.624Z,96362.60
2023-01-17T07:28:30.311Z,96352.60
2023-01-17T07:30:58.223Z,96349.60
2023-01-17T07:33:25.957Z,96347.20
2023-01-17T07:35:53.611Z,96342.20
2023-01-17T07:38:21.318Z,96348.20
2023-01-17T07:40:49.134Z,96352.40
2023-01-17T07:43:17.404Z,96352.20
2023-01-17T07:45:51.583Z,96351.40
2023-01-17T07:48:24.523Z,96355.00
2023-01-17T07:50:57.851Z,96354.20
2023-01-17T07:53:28.955Z,96354.60
2023-01-17T07:56:03.004Z,96353.60
2023-01-17T07:58:35.434Z,96345.60
2023-01-17T08:01:09.798Z,96349.00
2023-01-17T08:03:41.407Z,96358.60
2023-01-17T08:06:25.543Z,96355.20
2023-01-17T08:08:56.502Z,96360.00
2023-01-17T08:11:25.259Z,96358.80
2023-01-17T08:13:59.361Z,96365.60
2023-01-17T08:16:28.764Z,96373.20
2023-01-17T08:18:57.011Z,96374.60
2023-01-17T08:21:24.913Z,96376.60
2023-01-17T08:23:52.879Z,96383.20
2023-01-17T08:26:22.469Z,96388.40
2023-01-17T08:29:02.371Z,96393.40
2023-01-17T08:31:33.292Z,96388.20
2023-01-17T08:34:01.209Z,96395.80
2023-01-17T08:36:31.165Z,96396.80
2023-01-17T08:38:59.121Z,96401.20
2023-01-17T08:41:27.798Z,96403.00
2023-01-17T08:43:55.536Z,96395.20
2023-01-17T08:46:23.361Z,96395.20
2023-01-17T08:48:59.106Z,96398.80
2023-01-17T08:51:28.606Z,96408.40
2023-01-17T08:53:56.660Z,96406.60
2023-01-17T08:56:26.038Z,96405.80
2023-01-17T08:58:54.333Z,96411.00
2023-01-17T09:01:22.151Z,96417.40
2023-01-17T09:03:51.433Z,96416.40
2023-01-17T09:06:19.323Z,96414.20
2023-01-17T09:08:47.963Z,96420.80
2023-01-17T09:11:17.786Z,96415.60
2023-01-17T09:13:45.471Z,96416.80
2023-01-17T09:16:15.422Z,96412.00
2023-01-17T09:18:43.151Z,96412.80
2023-01-17T09:21:17.403Z,96403.80
2023-01-17T09:23:46.014Z,96416.40
2023-01-17T09:26:26.863Z,96413.20
2023-01-17T09:28:56.283Z,96418.20
2023-01-17T09:31:27.025Z,96428.60
2023-01-17T09:33:57.180Z,96424.40
2023-01-17T09:36:31.891Z,96426.60
2023-01-17T09:39:04.212Z,96434.20
2023-01-17T09:41:37.244Z,96440.60
2023-01-17T09:44:27.795Z,96436.40
2023-01-17T09:47:18.229Z,96435.20
2023-01-17T09:49:48.082Z,96443.00
2023-01-17T09:52:21.177Z,96439.60
2023-01-17T09:54:50.915Z,96435.60
2023-01-17T09:57:43.196Z,96436.60
2023-01-17T10:00:26.972Z,96439.20
2023-01-17T10:03:19.967Z,96436.40
2023-01-17T10:06:07.089Z,96433.40
2023-01-17T10:09:08.150Z,96437.40
2023-01-17T10:12:02.101Z,96433.80
2023-01-17T10:15:07.150Z,96431.20
2023-01-17T10:17:56.635Z,96431.40
2023-01-17T10:21:03.753Z,96427.60
2023-01-17T10:23:46.971Z,96430.80
2023-01-17T10:26:22.270Z,96423.40
2023-01-17T10:28:54.460Z,96416.20
2023-01-17T10:31:24.570Z,96420.60
2023-01-17T10:34:03.870Z,96419.60
2023-01-17T10:36:38.604Z,96429.80
2023-01-17T10:39:23.110Z,96437.60
2023-01-17T10:41:59.285Z,96428.80
2023-01-17T10:45:02.472Z,96436.00
2023-01-17T10:47:37.195Z,96441.40
2023-01-17T10:50:05.730Z,96439.60
2023-01-17T10:52:53.344Z,96437.60
2023-01-17T10:55:40.852Z,96439.60
2023-01-17T10:58:13.452Z,96432.00
2023-01-17T11:00:47.767Z,96431.60
2023-01-17T11:03:20.938Z,96429.20
2023-01-17T11:06:18.708Z,96429.60
2023-01-17T11:09:10.664Z,96427.60
2023-01-17T11:11:50.451Z,96424.20
2023-01-17T11:14:26.159Z,96430.40
2023-01-17T11:17:04.516Z,96428.00
2023-01-17T11:19:36.236Z,96431.40
2023-01-17T11:22:07.700Z,96431.00
2023-01-17T11:24:41.662Z,96427.00
2023-01-17T11:27:30.054Z,96432.60
2023-01-17T11:30:17.079Z,96423.80
2023-01-17T11:32:53.119Z,96419.40
2023-01-17T11:35:34.069Z,96415.40
2023-01-17T11:38:22.380Z,96417.00
2023-01-17T11:40:53.953Z,96410.00
2023-01-17T11:43:27.819Z,96406.60
2023-01-17T11:46:20.687Z,96398.80
2023-01-17T11:49:00.749Z,96399.80
2023-01-17T11:51:43.254Z,96390.80
2023-01-17T11:54:38.880Z,96393.40
2023-01-17T11:57:20.932Z,96390.00
2023-01-17T11:59:51.811Z,96390.00
2023-01-17T12:02:43.863Z,96390.60
2023-01-17T12:05:47.180Z,96394.00
2023-01-17T12:08:43.016Z,96405.20
2023-01-17T12:11:17.119Z,96403.60
2023-01-17T12:14:23.870Z,96399.40
2023-01-17T12:17:11.881Z,96399.20
2023-01-17T12:20:05.011Z,96390.00
2023-01-17T12:22:57.996Z,96390.20
2023-01-17T12:25:55.504Z,96389.80
2023-01-17T12:29:04.186Z,96383.40
2023-01-17T12:31:43.301Z,96389.00
2023-01-17T12:34:38.902Z,96379.60
2023-01-17T12:37:23.095Z,96383.80
2023-01-17T12:40:30.760Z,96392.00
2023-01-17T12:43:16.700Z,96391.20
2023-01-17T12:45:48.236Z,96397.00
2023-01-17T12:48:22.058Z,96395.20
2023-01-17T12:51:24.312Z,96398.60
2023-01-17T12:54:15.101Z,96398.60
2023-01-17T12:56:51.750Z,96409.40
2023-01-17T12:59:54.761Z,96406.20
2023-01-17T13:02:43.160Z,96414.00
2023-01-17T13:05:23.867Z,96412.40
2023-01-17T13:08:34.479Z,96416.40
2023-01-17T13:11:23.293Z,96414.80
2023-01-17T13:13:53.165Z,96407.40
2023-01-17T13:16:50.295Z,96410.60
2023-01-17T13:19:36.503Z,96413.00
2023-01-17T13:22:17.852Z,96407.60
2023-01-17T13:25:32.377Z,96412.80
2023-01-17T13:28:27.813Z,96408.80
2023-01-17T13:31:27.035Z,96412.40
2023-01-17T13:34:25.729Z,96412.60
2023-01-17T13:37:08.831Z,96407.00
2023-01-17T13:40:29.547Z,96412.40
2023-01-17T13:43:01.735Z,96414.00
2023-01-17T13:45:36.530Z,96412.20
2023-01-17T13:48:14.724Z,96414.40
2023-01-17T13:51:04.325Z,96425.00
2023-01-17T13:53:34.960Z,96440.20
2023-01-17T13:56:28.891Z,96450.40
2023-01-17T13:59:05.256Z,96461.80
2023-01-17T14:01:34.808Z,96458.40
2023-01-17T14:04:10.256Z,96468.80
2023-01-17T14:06:49.088Z,96466.80
2023-01-17T14:09:37.356Z,96472.00
2023-01-17T14:12:10.970Z,96465.60
2023-01-17T14:14:41.751Z,96483.40
2023-01-17T14:17:28.387Z,96487.60
2023-01-17T14:20:02.533Z,96496.80
2023-01-17T14:22:36.342Z,96503.00
2023-01-17T14:25:10.257Z,96512.20
2023-01-17T14:27:53.345Z,96519.80
2023-01-17T14:30:27.473Z,96530.40
2023-01-17T14:33:01.385Z,96538.80
2023-01-17T14:35:39.535Z,96551.20
2023-01-17T14:38:22.117Z,96561.00
2023-01-17T14:41:08.318Z,96564.80
2023-01-17T14:43:44.220Z,96566.60
2023-01-17T14:46:37.126Z,96570.80
2023-01-17T14:49:22.188Z,96566.60
2023-01-17T14:52:02.062Z,96571.00
2023-01-17T14:54:29.958Z,96572.20
2023-01-17T14:57:26.249Z,96565.00
2023-01-17T15:00:19.871Z,96575.20
2023-01-17T15:02:50.764Z,96575.60
2023-01-17T15:05:24.799Z,96572.80
2023-01-17T15:07:58.669Z,96576.20
2023-01-17T15:10:33.775Z,96570.00
2023-01-17T15:13:10.367Z,96581.60
2023-01-17T15:15:40.204Z,96579.40
2023-01-17T15:18:14.088Z,96582.60
2023-01-17T15:20:55.919Z,96581.20
2023-01-17T15:23:33.466Z,96584.80
2023-01-17T15:26:03.931Z,96580.60
2023-01-17T15:28:35.237Z,96580.40
2023-01-17T15:31:15.453Z,96582.40
2023-01-17T15:33:57.283Z,96580.00
2023-01-17T15:36:33.118Z,96579.40
2023-01-17T15:39:06.422Z,96584.00
2023-01-17T15:41:40.597Z,96584.20
2023-01-17T15:44:24.912Z,96581.60
2023-01-17T15:46:53.312Z,96583.00
2023-01-17T15:49:26.450Z,96586.40
2023-01-17T15:52:14.083Z,96595.00
2023-01-17T15:55:00.292Z,96585.00
2023-01-17T15:57:38.883Z,96582.60
2023-01-17T16:00:20.233Z,96573.00
2023-01-17T16:02:58.819Z,96572.80
2023-01-17T16:05:31.105Z,96571.80
2023-01-17T16:08:01.674Z,96570.40
2023-01-17T16:10:33.456Z,96569.00
2023-01-17T16:13:01.681Z,96567.60
2023-01-17T16:15:30.796Z,96569.00
2023-01-17T16:18:06.745Z,96556.20
2023-01-17T16:20:47.377Z,96556.80
2023-01-17T16:23:20.226Z,96549.00
2023-01-17T16:25:48.607Z,96550.20
2023-01-17T16:28:16.618Z,96541.80
2023-01-17T16:30:45.160Z,96530.60
2023-01-17T16:33:13.629Z,96525.00
2023-01-17T16:35:43.075Z,96519.20
2023-01-17T16:38:15.500Z,96520.40
2023-01-17T16:40:45.893Z,96521.00
2023-01-17T16:43:17.759Z,96526.40
2023-01-17T16:45:52.690Z,96528.40
2023-01-17T16:48:21.356Z,96536.40
2023-01-17T16:50:53.202Z,96542.20
2023-01-17T16:53:28.180Z,96539.40
2023-01-17T16:55:59.312Z,96539.40
2023-01-17T16:58:27.059Z,96535.60
2023-01-17T17:00:56.620Z,96540.00
2023-01-17T17:03:24.311Z,96533.00
2023-01-17T17:06:00.855Z,96529.60
2023-01-17T17:08:29.609Z,96533.80
2023-01-17T17:11:08.641Z,96534.60
2023-01-17T17:13:36.374Z,96535.80
2023-01-17T17:16:14.981Z,96529.60
2023-01-17T17:18:45.393Z,96523.60
2023-01-17T17:21:14.959Z,96524.20
2023-01-17T17:23:42.951Z,96520.20
2023-01-17T17:26:10.643Z,96518.40
2023-01-17T17:28:38.310Z,96519.60
2023-01-17T17:31:11.128Z,96526.60
2023-01-17T17:33:38.941Z,96525.40
2023-01-17T17:36:10.225Z,96528.00
2023-01-17T17:38:50.771Z,96524.00
2023-01-17T17:41:41.488Z,96527.00
2023-01-17T17:44:09.433Z,96530.80
2023-01-17T17:46:38.002Z,96534.20
2023-01-17T17:49:08.792Z,96529.80
2023-01-17T17:51:40.188Z,96529.20
2023-01-17T17:54:11.548Z,96539.00
2023-01-17T17:56:40.329Z,96537.40
2023-01-17T17:59:09.424Z,96544.00
2023-01-17T18:01:41.151Z,96547.40
2023-01-17T18:04:09.604Z,96542.20
2023-01-17T18:06:38.616Z,96537.40
2023-01-17T18:09:09.168Z,96545.80
2023-01-17T18:11:40.855Z,96547.60
2023-01-17T18:14:14.839Z,96551.60
2023-01-17T18:16:44.945Z,96559.80
2023-01-17T18:19:20.320Z,96570.40
2023-01-17T18:21:50.422Z,96576.00
2023-01-17T18:24:22.277Z,96586.40
2023-01-17T18:26:57.197Z,96596.20
2023-01-17T18:29:27.205Z,96601.00
2023-01-17T18:31:55.773Z,96601.60
2023-01-17T18:34:29.249Z,96613.80
2023-01-17T18:36:57.578Z,96615.60
2023-01-17T18:39:29.251Z,96613.60
2023-01-17T18:41:58.273Z,96613.00
2023-01-17T18:44:27.434Z,96605.20
2023-01-17T18:46:59.521Z,96603.00
2023-01-17T18:49:27.467Z,96601.80
2023-01-17T18:51:55.195Z,96605.60
2023-01-17T18:54:22.833Z,96611.60
2023-01-17T18:56:51.278Z,96607.40
2023-01-17T18:59:19.609Z,96609.40
2023-01-17T19:01:47.619Z,96614.60
2023-01-17T19:04:17.373Z,96618.00
2023-01-17T19:06:48.042Z,96626.60
2023-01-17T19:09:17.357Z,96631.20
2023-01-17T19:11:47.516Z,96632.20
2023-01-17T19:14:17.724Z,96629.20
2023-01-17T19:16:45.503Z,96627.00
2023-01-17T19:19:15.940Z,96622.20
2023-01-17T19:21:44.241Z,96623.00
2023-01-17T19:24:13.293Z,96623.40
2023-01-17T19:26:43.032Z,96624.80
2023-01-17T19:29:12.310Z,96628.40
2023-01-17T19:31:42.948Z,96627.40
2023-01-17T19:34:13.981Z,96620.80
2023-01-17T19:36:42.271Z,96611.40
2023-01-17T19:39:10.002Z,96601.80
2023-01-17T19:41:44.498Z,96596.80
2023-01-17T19:44:14.746Z,96583.80
2023-01-17T19:46:43.843Z,96584.20
2023-01-17T19:49:11.929Z,96579.80
2023-01-17T19:51:39.836Z,96577.60
2023-01-17T19:54:08.378Z,96574.60
2023-01-17T19:56:36.748Z,96566.40
2023-01-17T19:59:04.524Z,96570.00
2023-01-17T20:01:34.638Z,96565.80
2023-01-17T20:04:03.715Z,96567.80
2023-01-17T20:06:35.731Z,96570.60
2023-01-17T20:09:06.238Z,96573.00
2023-01-17T20:11:34.446Z,96575.00
2023-01-17T20:14:05.613Z,96573.00
2023-01-17T20:16:36.130Z,96565.60
2023-01-17T20:19:04.336Z,96560.40
2023-01-17T20:21:32.812Z,96555.60
2023-01-17T20:24:04.626Z,96551.20
2023-01-17T20:26:36.393Z,96552.60
2023-01-17T20:29:13.271Z,96542.60
2023-01-17T20:31:42.934Z,96539.20
2023-01-17T20:34:14.116Z,96546.00
2023-01-17T20:36:42.414Z,96544.20
2023-01-17T20:39:13.708Z,96545.60
2023-01-17T20:41:43.825Z,96541.00
2023-01-17T20:44:15.334Z,96549.20
2023-01-17T20:46:44.513Z,96544.00
2023-01-17T20:49:19.103Z,96536.60
2023-01-17T20:51:48.037Z,96531.20
2023-01-17T20:54:19.094Z,96519.20
2023-01-17T20:56:47.957Z,96515.60
2023-01-17T20:59:22.442Z,96514.40
2023-01-17T21:01:51.860Z,96511.40
2023-01-17T21:04:25.632Z,96506.20
2023-01-17T21:06:53.474Z,96513.40
2023-01-17T21:09:22.032Z,96522.60
2023-01-17T21:11:50.525Z,96527.20
2023-01-17T21:14:18.284Z,96524.20
2023-01-17T21:16:46.426Z,96516.80
2023-01-17T21:19:15.545Z,96510.00
2023-01-17T21:21:43.478Z,96504.40
2023-01-17T21:24:18.442Z,96507.20
2023-01-17T21:26:47.217Z,96507.20
2023-01-17T21:29:16.222Z,96510.60
2023-01-17T21:31:45.255Z,96521.00
2023-01-17T21:34:13.856Z,96518.20
2023-01-17T21:36:43.442Z,96526.00
2023-01-17T21:39:21.682Z,96525.40
2023-01-17T21:41:50.831Z,96530.00
2023-01-17T21:44:22.892Z,96533.40
2023-01-17T21:46:54.278Z,96540.00
2023-01-17T21:49:24.111Z,96545.40
2023-01-17T21:51:54.623Z,96552.40
2023-01-17T21:54:44.497Z,96543.00
2023-01-17T21:57:34.199Z,96540.60
2023-01-17T22:00:04.520Z,96553.40
2023-01-17T22:02:32.468Z,96547.20
2023-01-17T22:05:00.182Z,96549.60
2023-01-17T22:07:29.191Z,96544.80
2023-01-17T22:09:56.990Z,96539.20
2023-01-17T22:12:25.378Z,96540.00
2023-01-17T22:14:53.595Z,96536.60
2023-01-17T22:17:21.352Z,96549.00
2023-01-17T22:19:49.188Z,96557.20
2023-01-17T22:22:17.062Z,96558.40
2023-01-17T22:24:44.770Z,96549.40
2023-01-17T22:27:13.714Z,96542.20
2023-01-17T22:29:41.411Z,96532.80
2023-01-17T22:32:09.136Z,96520.80
2023-01-17T22:34:36.920Z,96516.60
2023-01-17T22:37:10.082Z,96519.80
2023-01-17T22:39:38.796Z,96537.60
2023-01-17T22:42:07.375Z,96542.60
2023-01-17T22:44:35.075Z,96526.40
2023-01-17T22:47:03.434Z,96512.40
2023-01-17T22:49:31.223Z,96492.80
2023-01-17T22:51:58.971Z,96493.00
2023-01-17T22:54:26.624Z,96492.80
2023-01-17T22:56:54.300Z,96482.00
2023-01-17T22:59:22.124Z,96480.40
2023-01-17T23:01:49.888Z,96484.20
2023-01-17T23:04:17.677Z,96488.40
2023-01-17T23:06:45.533Z,96484.40
2023-01-17T23:09:17.205Z,96477.60
2023-01-17T23:11:50.926Z,96472.80
2023-01-17T23:14:21.757Z,96466.40
2023-01-17T23:17:20.182Z,96462.60
2023-01-17T23:19:51.987Z,96458.60
2023-01-17T23:22:28.090Z,96448.20
2023-01-17T23:25:01.336Z,96447.60
2023-01-17T23:27:55.541Z,96437.60
2023-01-17T23:30:35.525Z,96438.80
2023-01-17T23:33:16.489Z,96432.60
2023-01-17T23:35:46.714Z,96433.20
2023-01-17T23:38:26.677Z,96430.20
2023-01-17T23:41:23.374Z,96430.20
2023-01-17T23:43:57.157Z,96415.20
2023-01-17T23:46:26.721Z,96411.60
2023-01-17T23:48:55.331Z,96407.40
2023-01-17T23:51:23.263Z,96406.60
2023-01-17T23:53:55.305Z,96416.80
2023-01-17T23:56:24.758Z,96420.60
2023-01-17T23:58:53.017Z,96414.20
